createdAt,value
2018-06-17T00:02:23.092Z,17.40
2018-06-17T00:04:51.675Z,17.90
2018-06-17T00:07:19.868Z,17.20
2018-06-17T00:09:48.556Z,16.53
2018-06-17T00:12:17.466Z,18.03
2018-06-17T00:14:45.687Z,16.27
2018-06-17T00:17:13.871Z,18.77
2018-06-17T00:19:43.483Z,16.60
2018-06-17T00:22:11.703Z,17.23
2018-06-17T00:24:40.037Z,16.90
2018-06-17T00:27:08.564Z,16.40
2018-06-17T00:29:41.112Z,16.40
2018-06-17T00:32:09.291Z,16.33
2018-06-17T00:34:38.748Z,17.48
2018-06-17T00:37:07.712Z,17.57
2018-06-17T00:39:35.891Z,17.40
2018-06-17T00:42:04.164Z,16.87
2018-06-17T00:46:59.501Z,17.83
2018-06-17T00:49:27.696Z,17.00
2018-06-17T00:51:55.867Z,16.37
2018-06-17T00:54:24.072Z,18.42
2018-06-17T00:57:04.203Z,19.05
2018-06-17T00:59:35.759Z,19.40
2018-06-17T01:02:04.862Z,21.52
2018-06-17T01:04:33.075Z,22.03
2018-06-17T01:07:01.307Z,20.00
2018-06-17T01:09:29.501Z,20.75
2018-06-17T01:11:57.709Z,22.30
2018-06-17T01:14:26.896Z,23.20
2018-06-17T01:16:55.077Z,22.93
2018-06-17T01:19:23.330Z,22.30
2018-06-17T01:21:51.549Z,20.70
2018-06-17T01:24:19.743Z,22.52
2018-06-17T01:26:47.952Z,19.98
2018-06-17T01:29:16.764Z,19.20
2018-06-17T01:31:45.022Z,19.60
2018-06-17T01:34:13.772Z,18.78
2018-06-17T01:36:41.989Z,19.70
2018-06-17T01:39:10.346Z,21.55
2018-06-17T01:41:38.703Z,23.10
2018-06-17T01:44:06.932Z,19.40
2018-06-17T01:46:35.154Z,21.70
2018-06-17T01:49:03.453Z,22.95
2018-06-17T01:51:31.562Z,21.97
2018-06-17T01:53:59.779Z,22.22
2018-06-17T01:56:28.334Z,21.60
2018-06-17T01:58:56.672Z,21.07
2018-06-17T02:01:32.482Z,20.95
2018-06-17T02:04:06.119Z,21.67
2018-06-17T02:06:39.670Z,21.70
2018-06-17T02:09:13.178Z,21.63
2018-06-17T02:11:48.055Z,22.75
2018-06-17T02:14:21.598Z,22.50
2018-06-17T02:16:54.395Z,22.40
2018-06-17T02:19:22.632Z,22.50
2018-06-17T02:21:50.884Z,22.70
2018-06-17T02:24:19.137Z,20.83
2018-06-17T02:26:47.323Z,20.08
2018-06-17T02:29:15.588Z,17.77
2018-06-17T02:31:47.228Z,20.50
2018-06-17T02:34:15.463Z,19.60
2018-06-17T02:36:44.308Z,21.65
2018-06-17T02:39:12.754Z,23.00
2018-06-17T02:41:41.010Z,22.40
2018-06-17T02:44:09.285Z,20.67
2018-06-17T02:46:42.813Z,22.70
2018-06-17T02:49:16.848Z,22.00
2018-06-17T02:51:50.991Z,22.20
2018-06-17T02:54:24.501Z,21.80
2018-06-17T02:56:52.750Z,19.60
2018-06-17T02:59:20.922Z,23.27
2018-06-17T03:01:49.106Z,21.60
2018-06-17T03:04:21.043Z,20.93
2018-06-17T03:06:49.222Z,20.77
2018-06-17T03:09:17.571Z,20.93
2018-06-17T03:11:45.788Z,20.53
2018-06-17T03:14:14.036Z,19.50
2018-06-17T03:16:42.285Z,20.68
2018-06-17T03:19:10.488Z,21.90
2018-06-17T03:21:38.705Z,18.17
2018-06-17T03:24:06.927Z,21.97
2018-06-17T03:26:40.402Z,19.07
2018-06-17T03:29:14.044Z,22.10
2018-06-17T03:31:47.754Z,25.90
2018-06-17T03:34:15.961Z,24.80
2018-06-17T03:36:44.146Z,23.17
2018-06-17T03:39:12.376Z,22.10
2018-06-17T03:41:40.586Z,21.77
2018-06-17T03:44:08.804Z,21.97
2018-06-17T03:46:37.042Z,22.27
2018-06-17T03:49:13.204Z,22.70
2018-06-17T03:51:41.464Z,21.60
2018-06-17T03:54:09.697Z,19.55
2018-06-17T03:56:37.917Z,18.97
2018-06-17T03:59:06.113Z,19.67
2018-06-17T04:01:34.671Z,18.37
2018-06-17T04:04:02.972Z,18.90
2018-06-17T04:06:31.159Z,18.27
2018-06-17T04:08:59.392Z,17.43
2018-06-17T04:11:27.601Z,17.47
2018-06-17T04:13:55.823Z,16.37
2018-06-17T04:16:24.040Z,15.83
2018-06-17T04:18:55.765Z,15.77
2018-06-17T04:21:24.471Z,16.00
2018-06-17T04:23:52.704Z,17.83
2018-06-17T04:26:20.976Z,16.90
2018-06-17T04:28:49.194Z,17.37
2018-06-17T04:31:17.446Z,17.87
2018-06-17T04:33:45.668Z,17.33
2018-06-17T04:36:13.993Z,17.23
2018-06-17T04:38:42.204Z,18.73
2018-06-17T04:41:10.501Z,17.42
2018-06-17T04:43:38.747Z,16.87
2018-06-17T04:46:07.023Z,16.97
2018-06-17T04:48:39.063Z,16.17
2018-06-17T04:51:07.242Z,17.17
2018-06-17T04:53:35.539Z,17.37
2018-06-17T04:56:04.054Z,16.87
2018-06-17T04:58:32.273Z,17.30
2018-06-17T05:01:00.756Z,16.95
2018-06-17T05:03:28.975Z,15.78
2018-06-17T05:05:57.206Z,18.30
2018-06-17T05:08:25.392Z,17.60
2018-06-17T05:10:53.661Z,17.60
2018-06-17T05:13:22.024Z,16.47
2018-06-17T05:15:50.235Z,17.47
2018-06-17T05:18:18.442Z,18.87
2018-06-17T05:20:46.616Z,16.63
2018-06-17T05:23:14.815Z,17.77
2018-06-17T05:25:43.083Z,17.73
2018-06-17T05:28:11.307Z,16.27
2018-06-17T05:30:39.584Z,15.10
2018-06-17T05:33:07.811Z,14.63
2018-06-17T05:35:36.033Z,13.73
2018-06-17T05:38:05.127Z,13.32
2018-06-17T05:40:33.363Z,12.58
2018-06-17T05:43:02.466Z,11.30
2018-06-17T05:45:30.660Z,12.58
2018-06-17T05:47:58.885Z,11.63
2018-06-17T05:50:27.431Z,10.15
2018-06-17T05:52:55.659Z,9.83
2018-06-17T05:55:24.885Z,10.87
2018-06-17T05:57:53.131Z,24.35
2018-06-17T06:00:21.920Z,8.83
2018-06-17T06:02:50.174Z,8.70
2018-06-17T06:05:18.367Z,8.85
2018-06-17T06:07:46.988Z,9.40
2018-06-17T06:10:15.229Z,9.07
2018-06-17T06:12:43.696Z,9.73
2018-06-17T06:15:11.912Z,9.10
2018-06-17T06:17:40.107Z,9.93
2018-06-17T06:20:12.327Z,9.23
2018-06-17T06:22:40.639Z,8.43
2018-06-17T06:25:08.858Z,8.40
2018-06-17T06:27:37.084Z,8.43
2018-06-17T06:30:05.484Z,7.57
2018-06-17T06:32:33.752Z,7.67
2018-06-17T06:35:02.009Z,7.73
2018-06-17T06:37:30.907Z,6.37
2018-06-17T06:39:59.228Z,6.12
2018-06-17T06:42:27.484Z,6.30
2018-06-17T06:44:56.197Z,5.87
2018-06-17T06:47:24.452Z,5.87
2018-06-17T06:49:52.674Z,5.83
2018-06-17T06:52:21.412Z,5.87
2018-06-17T06:54:50.522Z,5.58
2018-06-17T06:57:18.728Z,6.45
2018-06-17T06:59:46.982Z,5.27
2018-06-17T07:02:27.743Z,5.75
2018-06-17T07:07:13.394Z,6.40
2018-06-17T07:09:55.926Z,4.40
2018-06-17T07:12:30.501Z,5.28
2018-06-17T07:14:59.092Z,5.65
2018-06-17T07:17:40.495Z,5.30
2018-06-17T07:20:09.617Z,6.25
2018-06-17T07:22:37.787Z,5.13
2018-06-17T07:25:06.135Z,5.77
2018-06-17T07:27:46.559Z,5.72
2018-06-17T07:30:15.928Z,6.63
2018-06-17T07:32:44.288Z,5.50
2018-06-17T07:35:13.255Z,5.90
2018-06-17T07:37:45.935Z,5.53
2018-06-17T07:40:49.491Z,5.67
2018-06-17T07:43:19.628Z,5.47
2018-06-17T07:45:48.846Z,5.53
2018-06-17T07:48:27.725Z,5.60
2018-06-17T07:51:08.349Z,5.85
2018-06-17T07:53:37.842Z,5.87
2018-06-17T07:56:06.083Z,7.30
2018-06-17T07:58:34.212Z,6.13
2018-06-17T08:01:02.450Z,6.80
2018-06-17T08:03:30.646Z,7.80
2018-06-17T08:05:59.784Z,6.90
2018-06-17T08:08:32.027Z,6.97
2018-06-17T08:11:00.250Z,6.75
2018-06-17T08:13:29.047Z,6.53
2018-06-17T08:15:57.256Z,6.20
2018-06-17T08:18:25.456Z,7.20
2018-06-17T08:20:55.033Z,6.50
2018-06-17T08:23:27.669Z,5.83
2018-06-17T08:25:56.482Z,7.03
2018-06-17T08:28:24.733Z,6.35
2018-06-17T08:30:53.214Z,6.35
2018-06-17T08:33:21.436Z,7.10
2018-06-17T08:35:52.738Z,6.10
2018-06-17T08:38:20.702Z,6.37
2018-06-17T08:40:49.090Z,7.77
2018-06-17T08:43:17.419Z,7.07
2018-06-17T08:45:45.649Z,8.70
2018-06-17T08:48:14.527Z,8.42
2018-06-17T08:50:43.726Z,7.40
2018-06-17T08:53:11.900Z,8.03
2018-06-17T08:55:40.586Z,8.47
2018-06-17T09:00:43.182Z,7.22
2018-06-17T09:03:11.408Z,7.30
2018-06-17T09:05:39.912Z,7.40
2018-06-17T09:08:11.360Z,7.60
2018-06-17T09:10:40.729Z,6.57
2018-06-17T09:13:09.064Z,6.60
2018-06-17T09:15:37.379Z,5.80
2018-06-17T09:18:05.618Z,6.93
2018-06-17T09:20:33.960Z,7.90
2018-06-17T09:23:07.062Z,5.80
2018-06-17T09:25:36.700Z,6.35
2018-06-17T09:28:06.010Z,7.33
2018-06-17T09:30:34.294Z,6.43
2018-06-17T09:33:03.239Z,6.17
2018-06-17T09:35:32.032Z,5.17
2018-06-17T09:38:01.167Z,5.90
2018-06-17T09:40:32.504Z,5.57
2018-06-17T09:43:00.823Z,4.70
2018-06-17T09:45:29.400Z,5.90
2018-06-17T09:47:57.623Z,4.77
2018-06-17T09:50:28.098Z,5.53
2018-06-17T09:52:56.965Z,4.70
2018-06-17T09:55:25.907Z,4.47
2018-06-17T09:57:54.138Z,5.60
2018-06-17T10:00:23.430Z,5.05
2018-06-17T10:02:53.854Z,4.97
2018-06-17T10:05:22.303Z,3.57
2018-06-17T10:07:51.985Z,5.00
2018-06-17T10:10:49.999Z,4.30
2018-06-17T10:13:18.729Z,4.70
2018-06-17T10:15:48.270Z,4.67
2018-06-17T10:18:18.843Z,6.07
2018-06-17T10:20:47.449Z,3.52
2018-06-17T10:23:15.835Z,4.33
2018-06-17T10:25:47.168Z,4.40
2018-06-17T10:28:15.738Z,4.75
2018-06-17T10:30:45.844Z,4.77
2018-06-17T10:33:14.286Z,4.67
2018-06-17T10:35:43.742Z,4.90
2018-06-17T10:38:12.134Z,4.70
2018-06-17T10:40:44.865Z,4.90
2018-06-17T10:43:21.739Z,4.30
2018-06-17T10:45:50.136Z,4.20
2018-06-17T10:48:18.388Z,4.80
2018-06-17T10:50:46.763Z,4.15
2018-06-17T10:53:15.014Z,4.47
2018-06-17T10:55:46.272Z,4.12
2018-06-17T10:58:15.087Z,3.75
2018-06-17T11:00:43.327Z,4.13
2018-06-17T11:03:11.563Z,3.83
2018-06-17T11:05:40.615Z,5.12
2018-06-17T11:08:08.821Z,3.63
2018-06-17T11:10:45.561Z,3.87
2018-06-17T11:13:14.738Z,4.85
2018-06-17T11:15:43.107Z,3.97
2018-06-17T11:18:11.340Z,4.03
2018-06-17T11:20:39.572Z,3.73
2018-06-17T11:23:08.217Z,4.90
2018-06-17T11:25:39.396Z,4.27
2018-06-17T11:28:07.589Z,3.67
2018-06-17T11:30:35.938Z,4.22
2018-06-17T11:33:04.225Z,4.20
2018-06-17T11:35:32.409Z,4.93
2018-06-17T11:38:00.981Z,5.83
2018-06-17T11:40:29.900Z,4.40
2018-06-17T11:42:59.517Z,4.63
2018-06-17T11:45:27.715Z,4.73
2018-06-17T11:47:55.936Z,3.90
2018-06-17T11:50:24.161Z,4.97
2018-06-17T11:52:53.873Z,4.30
2018-06-17T11:55:22.386Z,4.97
2018-06-17T11:57:50.860Z,4.58
2018-06-17T12:00:19.039Z,4.83
2018-06-17T12:02:47.276Z,4.45
2018-06-17T12:05:15.814Z,5.30
2018-06-17T12:07:44.046Z,5.70
2018-06-17T12:10:12.635Z,4.93
2018-06-17T12:12:40.958Z,4.85
2018-06-17T12:15:09.125Z,4.93
2018-06-17T12:17:41.554Z,5.27
2018-06-17T12:20:12.652Z,4.86
2018-06-17T12:22:41.175Z,4.03
2018-06-17T12:25:10.741Z,4.83
2018-06-17T12:27:39.491Z,4.47
2018-06-17T12:30:08.171Z,4.80
2018-06-17T12:32:36.391Z,4.73
2018-06-17T12:35:04.728Z,5.00
2018-06-17T12:37:33.036Z,5.30
2018-06-17T12:40:01.232Z,4.73
2018-06-17T12:42:29.395Z,5.53
2018-06-17T12:45:01.369Z,4.97
2018-06-17T12:47:31.336Z,4.80
2018-06-17T12:49:59.612Z,4.70
2018-06-17T12:52:27.844Z,4.33
2018-06-17T12:54:56.125Z,5.17
2018-06-17T12:57:25.051Z,3.37
2018-06-17T13:00:00.361Z,4.20
2018-06-17T13:02:29.319Z,3.87
2018-06-17T13:05:01.127Z,3.47
2018-06-17T13:07:29.347Z,3.70
2018-06-17T13:09:57.549Z,4.00
2018-06-17T13:12:26.030Z,4.00
2018-06-17T13:14:58.658Z,3.70
2018-06-17T13:17:26.969Z,3.10
2018-06-17T13:19:55.266Z,3.37
2018-06-17T13:22:23.471Z,3.97
2018-06-17T13:24:51.762Z,4.30
2018-06-17T13:27:30.181Z,3.23
2018-06-17T13:29:59.681Z,3.23
2018-06-17T13:32:27.879Z,3.20
2018-06-17T13:34:56.188Z,3.00
2018-06-17T13:37:24.460Z,3.03
2018-06-17T13:39:52.875Z,2.90
2018-06-17T13:42:25.046Z,2.87
2018-06-17T13:44:53.263Z,3.07
2018-06-17T13:47:21.478Z,2.63
2018-06-17T13:49:49.675Z,2.83
2018-06-17T13:52:17.924Z,2.45
2018-06-17T13:54:46.478Z,2.20
2018-06-17T13:57:15.737Z,2.30
2018-06-17T13:59:44.319Z,2.67
2018-06-17T14:02:12.596Z,2.60
2018-06-17T14:04:41.055Z,2.50
2018-06-17T14:07:10.206Z,2.50
2018-06-17T14:09:39.939Z,2.40
2018-06-17T14:12:08.220Z,2.57
2018-06-17T14:14:36.415Z,2.80
2018-06-17T14:17:06.358Z,2.57
2018-06-17T14:19:34.688Z,2.37
2018-06-17T14:22:02.905Z,1.98
2018-06-17T14:24:31.451Z,2.27
2018-06-17T14:26:59.662Z,2.10
2018-06-17T14:29:40.505Z,2.20
2018-06-17T14:32:09.507Z,2.87
2018-06-17T14:34:38.978Z,2.50
2018-06-17T14:37:09.317Z,2.12
2018-06-17T14:39:37.610Z,2.33
2018-06-17T14:44:21.554Z,2.27
2018-06-17T14:46:55.436Z,3.20
2018-06-17T14:49:29.118Z,2.13
2018-06-17T14:52:02.832Z,3.10
2018-06-17T14:54:31.998Z,2.23
2018-06-17T14:57:00.766Z,3.90
2018-06-17T14:59:36.696Z,2.10
2018-06-17T15:02:04.917Z,2.57
2018-06-17T15:04:33.116Z,2.87
2018-06-17T15:07:02.090Z,2.53
2018-06-17T15:09:30.971Z,2.20
2018-06-17T15:11:59.255Z,2.10
2018-06-17T15:14:34.554Z,2.22
2018-06-17T15:17:03.749Z,2.27
2018-06-17T15:19:31.953Z,2.50
2018-06-17T15:22:00.245Z,2.20
2018-06-17T15:24:28.607Z,2.15
2018-06-17T15:26:56.847Z,1.98
2018-06-17T15:29:27.995Z,2.10
2018-06-17T15:32:03.105Z,1.92
2018-06-17T15:34:36.711Z,2.00
2018-06-17T15:37:11.390Z,1.98
2018-06-17T15:39:48.312Z,1.90
2018-06-17T15:42:16.592Z,1.80
2018-06-17T15:44:45.400Z,1.83
2018-06-17T15:47:14.236Z,2.20
2018-06-17T15:49:44.695Z,2.52
2018-06-17T15:52:13.428Z,2.02
2018-06-17T15:54:42.265Z,3.30
2018-06-17T15:57:11.114Z,2.97
2018-06-17T15:59:39.278Z,3.13
2018-06-17T16:02:08.351Z,1.70
2018-06-17T16:04:36.552Z,2.40
2018-06-17T16:07:04.772Z,1.70
2018-06-17T16:09:33.037Z,1.87
2018-06-17T16:12:07.818Z,2.17
2018-06-17T16:14:44.240Z,2.27
2018-06-17T16:17:17.934Z,2.73
2018-06-17T16:19:51.613Z,2.10
2018-06-17T16:22:19.678Z,2.30
2018-06-17T16:24:47.899Z,2.10
2018-06-17T16:27:16.695Z,2.60
2018-06-17T16:29:44.920Z,1.77
2018-06-17T16:32:12.934Z,1.85
2018-06-17T16:34:42.578Z,2.23
2018-06-17T16:37:12.095Z,2.20
2018-06-17T16:39:40.276Z,2.20
2018-06-17T16:42:08.532Z,1.75
2018-06-17T16:44:36.706Z,1.93
2018-06-17T16:47:12.400Z,1.80
2018-06-17T16:49:40.633Z,2.02
2018-06-17T16:52:14.746Z,1.40
2018-06-17T16:54:48.476Z,1.77
2018-06-17T16:57:21.889Z,2.07
2018-06-17T16:59:58.954Z,2.10
2018-06-17T17:02:26.938Z,2.30
2018-06-17T17:04:56.120Z,1.70
2018-06-17T17:07:24.370Z,2.17
2018-06-17T17:09:52.675Z,1.80
2018-06-17T17:12:20.860Z,1.92
2018-06-17T17:14:49.128Z,2.37
2018-06-17T17:17:17.379Z,2.07
2018-06-17T17:19:45.620Z,1.47
2018-06-17T17:22:13.865Z,2.20
2018-06-17T17:24:42.173Z,1.90
2018-06-17T17:27:10.402Z,2.30
2018-06-17T17:29:38.663Z,1.80
2018-06-17T17:32:12.154Z,1.90
2018-06-17T17:34:46.228Z,1.55
2018-06-17T17:37:19.869Z,2.00
2018-06-17T17:39:53.584Z,2.70
2018-06-17T17:42:21.564Z,2.42
2018-06-17T17:44:55.128Z,2.10
2018-06-17T17:47:25.687Z,1.87
2018-06-17T17:49:57.618Z,2.30
2018-06-17T17:52:25.848Z,2.23
2018-06-17T17:54:54.719Z,2.30
2018-06-17T17:57:22.910Z,2.93
2018-06-17T17:59:51.167Z,2.43
2018-06-17T18:02:19.433Z,2.17
2018-06-17T18:04:48.179Z,2.70
2018-06-17T18:07:16.375Z,1.73
2018-06-17T18:09:44.552Z,2.23
2018-06-17T18:12:12.768Z,1.93
2018-06-17T18:14:41.041Z,2.30
2018-06-17T18:17:09.275Z,3.50
2018-06-17T18:19:44.137Z,2.33
2018-06-17T18:22:12.338Z,2.20
2018-06-17T18:24:40.547Z,2.10
2018-06-17T18:27:14.208Z,1.95
2018-06-17T18:29:47.844Z,1.90
2018-06-17T18:32:21.543Z,3.00
2018-06-17T18:34:55.094Z,2.40
2018-06-17T18:37:23.329Z,2.23
2018-06-17T18:39:51.547Z,2.20
2018-06-17T18:42:19.791Z,2.70
2018-06-17T18:44:48.040Z,2.50
2018-06-17T18:47:19.791Z,1.97
2018-06-17T18:49:48.816Z,3.10
2018-06-17T18:52:17.008Z,2.20
2018-06-17T18:54:45.048Z,3.05
2018-06-17T18:57:13.340Z,2.87
2018-06-17T18:59:41.522Z,2.23
2018-06-17T19:02:09.778Z,2.90
2018-06-17T19:04:41.753Z,2.30
2018-06-17T19:07:09.961Z,2.33
2018-06-17T19:09:43.519Z,2.87
2018-06-17T19:12:16.996Z,2.70
2018-06-17T19:14:50.629Z,2.50
2018-06-17T19:17:24.160Z,3.03
2018-06-17T19:19:52.418Z,2.30
2018-06-17T19:22:21.037Z,2.03
2018-06-17T19:24:49.260Z,2.70
2018-06-17T19:27:17.420Z,2.90
2018-06-17T19:29:45.616Z,2.27
2018-06-17T19:32:13.991Z,2.97
2018-06-17T19:34:42.236Z,2.50
2018-06-17T19:37:10.451Z,2.52
2018-06-17T19:39:38.688Z,2.73
2018-06-17T19:42:06.875Z,2.47
2018-06-17T19:44:35.063Z,2.57
2018-06-17T19:47:03.249Z,2.52
2018-06-17T19:49:41.451Z,2.60
2018-06-17T19:52:14.945Z,3.30
2018-06-17T19:54:48.595Z,2.57
2018-06-17T19:57:21.976Z,2.50
2018-06-17T19:59:55.647Z,2.83
2018-06-17T20:02:24.793Z,2.80
2018-06-17T20:04:53.168Z,2.87
2018-06-17T20:07:21.406Z,3.60
2018-06-17T20:09:49.579Z,3.57
2018-06-17T20:12:17.772Z,3.40
2018-06-17T20:14:45.997Z,3.30
2018-06-17T20:17:14.200Z,3.40
2018-06-17T20:19:47.283Z,3.07
2018-06-17T20:22:15.457Z,3.05
2018-06-17T20:24:44.626Z,3.60
2018-06-17T20:27:12.828Z,2.83
2018-06-17T20:29:41.011Z,2.65
2018-06-17T20:32:14.912Z,2.98
2018-06-17T20:34:48.333Z,3.20
2018-06-17T20:37:21.983Z,2.60
2018-06-17T20:39:52.598Z,2.63
2018-06-17T20:42:26.168Z,3.50
2018-06-17T20:44:54.543Z,3.17
2018-06-17T20:47:22.975Z,2.77
2018-06-17T20:49:54.815Z,2.90
2018-06-17T20:52:23.421Z,3.02
2018-06-17T20:54:51.635Z,3.20
2018-06-17T20:57:19.832Z,3.33
2018-06-17T20:59:48.304Z,2.93
2018-06-17T21:02:16.563Z,2.87
2018-06-17T21:04:51.437Z,3.53
2018-06-17T21:07:19.713Z,2.77
2018-06-17T21:09:48.893Z,3.15
2018-06-17T21:12:18.067Z,2.90
2018-06-17T21:14:46.338Z,2.90
2018-06-17T21:17:14.585Z,2.70
2018-06-17T21:19:55.572Z,2.73
2018-06-17T21:22:29.043Z,3.30
2018-06-17T21:25:02.588Z,3.07
2018-06-17T21:27:36.154Z,3.20
2018-06-17T21:30:04.375Z,3.20
2018-06-17T21:32:33.296Z,3.05
2018-06-17T21:35:01.512Z,3.83
2018-06-17T21:37:29.719Z,2.60
2018-06-17T21:39:57.686Z,2.67
2018-06-17T21:42:25.864Z,3.72
2018-06-17T21:44:54.164Z,3.30
2018-06-17T21:47:23.004Z,3.10
2018-06-17T21:49:52.800Z,4.17
2018-06-17T21:52:22.562Z,3.50
2018-06-17T21:54:50.810Z,3.40
2018-06-17T21:57:23.428Z,3.47
2018-06-17T21:59:53.469Z,3.20
2018-06-17T22:02:21.882Z,3.10
2018-06-17T22:04:51.453Z,3.60
2018-06-17T22:07:19.812Z,2.95
2018-06-17T22:09:53.959Z,3.02
2018-06-17T22:12:27.662Z,3.70
2018-06-17T22:15:02.154Z,3.13
2018-06-17T22:17:52.217Z,3.23
2018-06-17T22:20:21.020Z,4.05
2018-06-17T22:22:50.377Z,3.10
2018-06-17T22:25:19.167Z,3.80
2018-06-17T22:27:47.441Z,3.47
2018-06-17T22:30:15.640Z,3.00
2018-06-17T22:32:44.609Z,3.42
2018-06-17T22:35:12.862Z,3.37
2018-06-17T22:37:41.066Z,3.72
2018-06-17T22:40:16.099Z,3.50
2018-06-17T22:42:44.265Z,3.67
2018-06-17T22:45:12.549Z,3.60
2018-06-17T22:47:46.067Z,3.40
2018-06-17T22:50:14.365Z,3.60
2018-06-17T22:52:53.936Z,3.13
2018-06-17T22:55:22.482Z,4.17
2018-06-17T23:00:03.424Z,3.12
2018-06-17T23:02:37.028Z,2.83
2018-06-17T23:05:10.868Z,3.17
2018-06-17T23:07:44.446Z,3.40
2018-06-17T23:10:12.667Z,3.57
2018-06-17T23:12:40.883Z,3.17
2018-06-17T23:15:09.139Z,3.60
2018-06-17T23:17:37.355Z,3.83
2018-06-17T23:20:05.639Z,4.07
2018-06-17T23:22:33.556Z,3.67
2018-06-17T23:25:01.773Z,4.20
2018-06-17T23:27:30.010Z,3.90
2018-06-17T23:29:58.268Z,3.43
2018-06-17T23:32:26.459Z,3.50
2018-06-17T23:34:54.685Z,4.13
2018-06-17T23:37:25.795Z,3.37
2018-06-17T23:39:54.026Z,3.30
2018-06-17T23:42:22.259Z,3.50
2018-06-17T23:44:51.012Z,3.77
2018-06-17T23:47:24.452Z,3.47
2018-06-17T23:49:58.017Z,3.80
2018-06-17T23:52:35.951Z,4.00
2018-06-17T23:55:09.778Z,4.12
2018-06-17T23:57:38.031Z,4.10
